Time;durP1;ratioP1;P1;durP2;ratioP2;P2;SDS_P1;SDS_P2;PMS_P1;PMS_P2;Temp;Humidity;BMP_temperature;BMP_pressure;BME280_temperature;BME280_humidity;BME280_pressure;Samples;Min_cycle;Max_cycle;Signal;HPM_P1;HPM_P2
2022/12/22 03:26:16;;;;;;;31.45;21.67;;;9.70;99.90;;;;;;5029628;28;20573;-74
2022/12/22 03:28:43;;;;;;;24.73;21.33;;;9.70;99.90;;;;;;5051364;28;20235;-76
2022/12/22 03:31:09;;;;;;;26.88;21.00;;;9.80;99.90;;;;;;5038710;28;20289;-72
2022/12/22 03:33:38;;;;;;;25.25;19.85;;;9.80;99.90;;;;;;5038584;28;20208;-72
2022/12/22 03:36:09;;;;;;;27.63;21.40;;;9.80;99.90;;;;;;5058611;28;20208;-74
2022/12/22 03:38:35;;;;;;;30.27;22.17;;;9.80;99.90;;;;;;5032985;28;20313;-73
2022/12/22 03:41:03;;;;;;;40.40;22.65;;;9.80;99.90;;;;;;5027183;28;20205;-72
2022/12/22 03:46:32;;;;;;;39.88;22.95;;;9.60;99.90;;;;;;5028814;28;20214;-74
2022/12/22 03:49:10;;;;;;;35.58;22.27;;;9.50;99.90;;;;;;5035202;28;20660;-74
2022/12/22 03:51:39;;;;;;;37.25;24.80;;;9.50;99.90;;;;;;5035016;28;20602;-73
2022/12/22 03:54:06;;;;;;;26.17;20.90;;;9.50;99.90;;;;;;5026417;28;20713;-74
2022/12/22 03:56:33;;;;;;;30.00;23.02;;;9.60;99.90;;;;;;5035378;28;20209;-74
2022/12/22 03:59:00;;;;;;;23.50;19.00;;;9.60;99.90;;;;;;5035398;28;20216;-74
2022/12/22 04:01:27;;;;;;;31.98;23.05;;;9.60;99.90;;;;;;5028911;28;20207;-73
2022/12/22 04:03:54;;;;;;;32.58;22.38;;;9.70;99.90;;;;;;5033403;28;20560;-73
2022/12/22 04:06:22;;;;;;;33.47;21.88;;;9.70;99.90;;;;;;5041938;28;20283;-75
2022/12/22 04:08:49;;;;;;;29.00;22.23;;;9.50;99.90;;;;;;5026015;28;20271;-73
2022/12/22 04:14:03;;;;;;;33.15;23.05;;;9.50;99.90;;;;;;5016205;28;20197;-74
2022/12/22 04:16:30;;;;;;;33.50;22.63;;;9.60;99.90;;;;;;5046985;28;20308;-73
2022/12/22 04:18:58;;;;;;;38.15;25.65;;;9.60;99.90;;;;;;5033554;28;20232;-73
2022/12/22 04:21:26;;;;;;;36.17;23.50;;;9.60;99.90;;;;;;5031846;28;20661;-74
2022/12/22 04:23:53;;;;;;;30.17;23.52;;;9.60;99.90;;;;;;5035176;28;20561;-74
2022/12/22 04:26:22;;;;;;;35.17;23.67;;;9.70;99.90;;;;;;5029706;28;20379;-74
2022/12/22 04:28:49;;;;;;;32.33;22.45;;;9.60;99.90;;;;;;5034582;28;20766;-74
2022/12/22 04:31:17;;;;;;;30.67;21.65;;;9.60;99.90;;;;;;5034849;28;20215;-74
2022/12/22 04:33:44;;;;;;;31.27;21.58;;;9.50;99.90;;;;;;5035146;28;20951;-73
2022/12/22 04:36:11;;;;;;;42.10;25.70;;;9.40;99.90;;;;;;5035074;28;20296;-74
2022/12/22 04:38:40;;;;;;;37.90;24.67;;;9.30;99.90;;;;;;5033906;28;20306;-74
2022/12/22 04:41:07;;;;;;;38.70;24.15;;;9.30;99.90;;;;;;5034548;28;20206;-72
2022/12/22 04:43:34;;;;;;;39.17;25.10;;;9.40;99.90;;;;;;5030208;28;20224;-73
2022/12/22 04:46:01;;;;;;;34.20;24.77;;;9.40;99.90;;;;;;5034862;28;20288;-74
2022/12/22 04:48:30;;;;;;;39.10;25.20;;;9.50;99.90;;;;;;5034704;28;20283;-74
2022/12/22 04:50:58;;;;;;;32.03;23.25;;;9.40;99.90;;;;;;5033899;28;20200;-73
2022/12/22 04:53:26;;;;;;;35.08;23.85;;;9.40;99.90;;;;;;5034278;28;20311;-74
2022/12/22 04:55:57;;;;;;;43.10;26.98;;;9.50;99.90;;;;;;5034772;28;20274;-75
2022/12/22 04:58:24;;;;;;;27.42;22.20;;;9.50;99.90;;;;;;5028215;28;20232;-74
2022/12/22 05:00:51;;;;;;;36.75;24.77;;;9.50;99.90;;;;;;5033397;28;20208;-74
2022/12/22 05:03:18;;;;;;;36.15;25.50;;;9.60;99.90;;;;;;5034435;28;20254;-74
2022/12/22 05:05:45;;;;;;;34.15;23.50;;;9.60;99.90;;;;;;5032682;28;20726;-74
2022/12/22 05:08:12;;;;;;;34.42;23.90;;;9.60;99.90;;;;;;5032261;28;20200;-74
2022/12/22 05:10:40;;;;;;;28.98;22.58;;;9.60;99.90;;;;;;5035058;28;20728;-74
2022/12/22 05:13:08;;;;;;;36.92;25.17;;;9.70;99.90;;;;;;5033581;28;20204;-75
2022/12/22 05:15:36;;;;;;;39.10;24.38;;;9.60;99.90;;;;;;5034729;28;20283;-75
2022/12/22 05:18:03;;;;;;;37.72;23.77;;;9.60;99.90;;;;;;5035691;28;20237;-74
2022/12/22 05:20:31;;;;;;;31.75;23.88;;;9.50;99.90;;;;;;5049541;28;20254;-74
2022/12/22 05:22:59;;;;;;;50.85;27.55;;;9.50;99.90;;;;;;5034544;28;20279;-74
2022/12/22 05:25:26;;;;;;;39.03;26.55;;;9.40;99.90;;;;;;5033964;28;20303;-74
2022/12/22 05:27:53;;;;;;;40.33;27.50;;;9.40;99.90;;;;;;5032987;28;20291;-74
2022/12/22 05:30:21;;;;;;;47.42;27.38;;;9.30;99.90;;;;;;5033174;28;20318;-73
2022/12/22 05:32:48;;;;;;;46.28;27.80;;;9.40;99.90;;;;;;5032334;28;20201;-75
2022/12/22 05:35:16;;;;;;;51.03;28.88;;;9.50;99.90;;;;;;5031080;28;20208;-73
2022/12/22 05:37:43;;;;;;;48.53;29.17;;;9.40;99.90;;;;;;5033332;28;20208;-74
2022/12/22 05:40:11;;;;;;;51.55;27.98;;;9.40;99.90;;;;;;5031437;28;20217;-76
2022/12/22 05:42:38;;;;;;;43.22;26.27;;;9.40;99.90;;;;;;5033767;28;20205;-74
2022/12/22 05:45:11;;;;;;;44.53;26.63;;;9.40;99.90;;;;;;5030516;28;20227;-75
2022/12/22 05:47:39;;;;;;;50.33;28.38;;;9.40;99.90;;;;;;5033810;28;20243;-74
2022/12/22 05:50:08;;;;;;;36.72;24.90;;;9.40;99.90;;;;;;5030951;28;20737;-74
2022/12/22 05:52:35;;;;;;;49.85;31.10;;;9.40;99.90;;;;;;5033629;28;20227;-75
2022/12/22 05:55:02;;;;;;;44.38;27.52;;;9.30;99.90;;;;;;5033636;28;20199;-75
2022/12/22 05:57:29;;;;;;;46.40;28.30;;;9.30;99.90;;;;;;5032520;28;20296;-74
2022/12/22 05:59:56;;;;;;;50.60;28.73;;;9.30;99.90;;;;;;5032484;28;20220;-74
2022/12/22 06:02:23;;;;;;;50.80;27.08;;;9.30;99.90;;;;;;5030491;28;20280;-73
2022/12/22 06:04:51;;;;;;;46.22;28.40;;;9.30;99.90;;;;;;5032915;28;20251;-73
2022/12/22 06:07:18;;;;;;;40.80;27.45;;;9.20;99.90;;;;;;5032990;28;20199;-75
2022/12/22 06:09:45;;;;;;;48.15;28.90;;;9.20;99.90;;;;;;5028080;28;20354;-74
2022/12/22 06:12:13;;;;;;;48.13;31.08;;;9.10;99.90;;;;;;5033020;28;20696;-74
2022/12/22 06:14:40;;;;;;;50.33;30.27;;;9.10;99.90;;;;;;5029337;28;20200;-74
2022/12/22 06:17:07;;;;;;;40.17;28.40;;;9.20;99.90;;;;;;5045007;28;20207;-75
2022/12/22 06:19:33;;;;;;;38.35;24.63;;;9.10;99.90;;;;;;5031674;28;20247;-74
2022/12/22 06:22:02;;;;;;;42.47;26.83;;;9.20;99.90;;;;;;5029686;28;20234;-74
2022/12/22 06:24:29;;;;;;;39.08;27.92;;;9.10;99.90;;;;;;5033153;28;20561;-74
2022/12/22 06:26:56;;;;;;;42.78;26.10;;;9.10;99.90;;;;;;5033354;28;20200;-74
2022/12/22 06:29:27;;;;;;;44.85;27.88;;;9.20;99.90;;;;;;5033548;28;20248;-74
2022/12/22 06:31:54;;;;;;;35.33;25.25;;;9.20;99.90;;;;;;5033705;28;20208;-74
2022/12/22 06:34:21;;;;;;;44.08;26.30;;;9.30;99.90;;;;;;5033543;28;20247;-74
2022/12/22 06:36:49;;;;;;;43.70;28.38;;;9.40;99.90;;;;;;5026576;28;20287;-70
2022/12/22 06:39:17;;;;;;;35.88;24.00;;;9.40;99.90;;;;;;5030856;28;20237;-72
2022/12/22 06:44:29;;;;;;;34.75;26.25;;;9.60;99.90;;;;;;5031170;28;20220;-73
2022/12/22 06:46:56;;;;;;;42.58;25.60;;;9.60;99.90;;;;;;5026059;28;20287;-75
2022/12/22 06:49:23;;;;;;;39.28;26.17;;;9.60;99.90;;;;;;5032534;28;20220;-77
2022/12/22 06:51:50;;;;;;;40.58;26.10;;;9.70;99.90;;;;;;5033348;28;20211;-78
2022/12/22 06:54:20;;;;;;;33.85;24.38;;;9.60;99.90;;;;;;5029098;28;20194;-77
2022/12/22 06:56:47;;;;;;;42.50;27.33;;;9.60;99.90;;;;;;5030492;28;20292;-75
2022/12/22 06:59:14;;;;;;;43.17;27.67;;;9.60;99.90;;;;;;5037308;28;20433;-76
2022/12/22 07:01:42;;;;;;;44.72;26.55;;;9.50;99.90;;;;;;5043256;28;20204;-79
2022/12/22 07:04:09;;;;;;;43.83;28.15;;;9.50;99.90;;;;;;5047946;28;20222;-74
2022/12/22 07:06:36;;;;;;;34.90;25.40;;;9.50;99.90;;;;;;5039570;28;20607;-77
2022/12/22 07:09:03;;;;;;;35.15;23.90;;;9.60;99.90;;;;;;5041775;28;20229;-75
2022/12/22 07:11:31;;;;;;;42.03;28.45;;;9.60;99.90;;;;;;5040557;28;20325;-76
2022/12/22 07:13:59;;;;;;;45.05;26.38;;;9.60;99.90;;;;;;5038061;28;20206;-76
2022/12/22 07:16:26;;;;;;;38.80;25.92;;;9.60;99.90;;;;;;5036856;28;20267;-77
2022/12/22 07:18:53;;;;;;;39.90;27.50;;;9.70;99.90;;;;;;5030746;28;20311;-78
2022/12/22 07:21:20;;;;;;;39.28;25.85;;;9.70;99.90;;;;;;5032759;28;20224;-76
2022/12/22 07:23:47;;;;;;;47.40;29.48;;;9.70;99.90;;;;;;5037228;28;20648;-75
2022/12/22 07:26:14;;;;;;;45.03;28.27;;;9.70;99.90;;;;;;5037730;28;20234;-76
2022/12/22 07:28:43;;;;;;;37.58;25.95;;;9.60;99.90;;;;;;5039612;28;20251;-74
2022/12/22 07:31:11;;;;;;;40.10;26.25;;;9.60;99.90;;;;;;5032375;28;20232;-77
2022/12/22 07:33:38;;;;;;;40.67;28.08;;;9.60;99.90;;;;;;5033248;28;20286;-76
2022/12/22 07:36:07;;;;;;;39.97;25.20;;;9.70;99.90;;;;;;5032155;28;20224;-77
2022/12/22 07:38:35;;;;;;;37.53;26.38;;;9.80;99.90;;;;;;5034452;28;20239;-76
2022/12/22 07:41:03;;;;;;;45.10;27.85;;;9.70;99.90;;;;;;5031178;28;20299;-77
2022/12/22 07:43:29;;;;;;;36.75;24.60;;;9.70;99.90;;;;;;5022273;28;20209;-77
2022/12/22 07:45:57;;;;;;;40.00;27.97;;;9.70;99.90;;;;;;5033082;28;20662;-76
2022/12/22 07:51:09;;;;;;;43.22;27.65;;;9.80;99.90;;;;;;5033470;28;20254;-80
2022/12/22 07:53:36;;;;;;;42.50;28.05;;;9.80;99.90;;;;;;5035697;28;20210;-78
2022/12/22 07:56:04;;;;;;;46.65;28.55;;;9.50;99.90;;;;;;5036896;28;20290;-76
2022/12/22 07:58:31;;;;;;;47.97;29.17;;;9.50;99.90;;;;;;5028703;28;20216;-79
2022/12/22 08:01:01;;;;;;;38.88;25.50;;;9.40;99.90;;;;;;5029453;28;20205;-78
2022/12/22 08:03:28;;;;;;;40.22;27.73;;;9.40;99.90;;;;;;5037092;28;20292;-78
2022/12/22 08:05:55;;;;;;;51.70;31.85;;;9.40;99.90;;;;;;5035276;28;20267;-78
2022/12/22 08:08:22;;;;;;;50.55;30.33;;;9.40;99.90;;;;;;5025938;28;20259;-77
2022/12/22 08:10:49;;;;;;;51.92;29.50;;;9.40;99.90;;;;;;5029046;28;20208;-76
2022/12/22 08:13:16;;;;;;;49.60;29.08;;;9.30;99.90;;;;;;5029863;28;20244;-79
2022/12/22 08:15:44;;;;;;;51.97;31.63;;;9.20;99.90;;;;;;5043287;28;20205;-77
2022/12/22 08:18:12;;;;;;;57.63;29.80;;;9.20;99.90;;;;;;5035736;28;20292;-77
2022/12/22 08:20:39;;;;;;;59.40;32.95;;;9.30;99.90;;;;;;5037099;28;20216;-78
2022/12/22 08:23:06;;;;;;;67.93;34.00;;;9.30;99.90;;;;;;5034890;28;20329;-76
2022/12/22 08:25:34;;;;;;;53.83;32.33;;;9.30;99.90;;;;;;5035243;28;20311;-78
2022/12/22 08:28:02;;;;;;;58.72;30.95;;;9.40;99.90;;;;;;5039323;28;20293;-77
2022/12/22 08:30:30;;;;;;;50.13;32.13;;;9.40;99.90;;;;;;5035081;28;20290;-76
2022/12/22 08:32:57;;;;;;;57.70;30.75;;;9.40;99.90;;;;;;5037456;28;20196;-77
2022/12/22 08:35:25;;;;;;;60.20;32.42;;;9.40;99.90;;;;;;5047740;28;20200;-76
2022/12/22 08:37:53;;;;;;;71.78;34.08;;;9.40;99.90;;;;;;5035872;28;20250;-80
2022/12/22 08:40:22;;;;;;;52.80;31.05;;;9.60;99.90;;;;;;5036493;28;20304;-78
2022/12/22 08:42:55;;;;;;;49.67;30.73;;;9.50;99.90;;;;;;5037414;28;20208;-82
2022/12/22 08:45:22;;;;;;;51.00;31.00;;;9.50;99.90;;;;;;5035954;28;20248;-77
2022/12/22 08:47:51;;;;;;;45.97;29.58;;;9.60;99.90;;;;;;5039574;28;20205;-80
2022/12/22 08:50:18;;;;;;;53.97;32.10;;;9.70;99.90;;;;;;5050674;28;20220;-84
2022/12/22 08:52:47;;;;;;;55.10;31.38;;;9.70;99.90;;;;;;5047060;28;20240;-82
2022/12/22 08:55:20;;;;;;;52.65;30.92;;;9.70;99.90;;;;;;5051227;28;20193;-77
2022/12/22 08:57:49;;;;;;;54.13;33.15;;;9.80;99.90;;;;;;5038299;28;20204;-79
2022/12/22 09:00:17;;;;;;;65.43;32.17;;;9.80;99.90;;;;;;5032513;28;20312;-77
2022/12/22 09:02:44;;;;;;;52.95;31.60;;;10.00;99.90;;;;;;5042740;28;20206;-82
2022/12/22 09:05:10;;;;;;;59.42;31.80;;;10.00;99.90;;;;;;5037230;28;20825;-83
2022/12/22 09:07:38;;;;;;;58.95;32.72;;;9.90;99.90;;;;;;5038228;28;20298;-82
2022/12/22 09:10:07;;;;;;;57.55;33.22;;;9.80;99.90;;;;;;5033313;28;20228;-80
2022/12/22 09:12:34;;;;;;;67.35;35.55;;;9.70;99.90;;;;;;5033883;28;20231;-79
2022/12/22 09:15:01;;;;;;;64.63;31.80;;;9.70;99.90;;;;;;5027003;28;20196;-77
2022/12/22 09:17:28;;;;;;;69.45;33.60;;;9.70;99.90;;;;;;5032017;28;20220;-79
2022/12/22 09:19:55;;;;;;;71.47;31.48;;;9.80;99.90;;;;;;5034836;28;20753;-80
2022/12/22 09:22:22;;;;;;;73.07;35.75;;;9.80;99.90;;;;;;5035263;28;20197;-79
2022/12/22 09:24:49;;;;;;;74.55;39.00;;;9.80;99.90;;;;;;5046622;28;20235;-76
2022/12/22 09:27:17;;;;;;;53.92;31.17;;;9.90;99.90;;;;;;5031995;28;20250;-77
2022/12/22 09:29:44;;;;;;;80.97;37.85;;;9.90;99.90;;;;;;5033212;28;20306;-75
2022/12/22 09:32:11;;;;;;;64.22;33.05;;;9.90;99.90;;;;;;5034325;28;20616;-76
2022/12/22 09:34:40;;;;;;;46.78;29.33;;;9.90;99.90;;;;;;5033002;28;20237;-77
2022/12/22 09:37:07;;;;;;;50.70;29.70;;;10.00;99.90;;;;;;5033175;28;20230;-78
2022/12/22 09:39:34;;;;;;;57.92;32.15;;;10.10;99.90;;;;;;5033877;28;20325;-75
2022/12/22 09:42:01;;;;;;;49.38;30.65;;;10.10;99.90;;;;;;5035175;28;20241;-79
2022/12/22 09:44:34;;;;;;;69.30;30.98;;;10.00;99.90;;;;;;5034561;28;20267;-76
2022/12/22 09:47:06;;;;;;;62.40;28.67;;;9.90;99.90;;;;;;5031067;28;20214;-75
2022/12/22 09:49:33;;;;;;;53.75;30.08;;;9.80;99.90;;;;;;5033056;28;20256;-74
2022/12/22 09:52:02;;;;;;;63.47;30.58;;;9.80;99.90;;;;;;5033776;28;20200;-80
2022/12/22 09:54:30;;;;;;;63.83;30.83;;;9.90;99.90;;;;;;5038996;28;20315;-76
2022/12/22 09:57:03;;;;;;;64.18;32.03;;;9.90;99.90;;;;;;5034517;28;20508;-76
2022/12/22 09:59:31;;;;;;;54.78;29.13;;;10.00;99.90;;;;;;5032677;28;20270;-74
2022/12/22 10:02:11;;;;;;;62.92;33.25;;;10.10;99.90;;;;;;5020882;28;20201;-74
2022/12/22 10:04:56;;;;;;;60.28;31.00;;;10.10;99.90;;;;;;5031624;28;20866;-74
2022/12/22 10:07:31;;;;;;;65.47;31.42;;;10.10;99.90;;;;;;5031206;28;20592;-77
2022/12/22 10:09:58;;;;;;;54.08;30.45;;;10.10;99.90;;;;;;5014446;28;20311;-76
2022/12/22 10:12:26;;;;;;;59.33;30.63;;;10.00;99.90;;;;;;5033048;28;20698;-79
2022/12/22 10:14:55;;;;;;;67.68;31.65;;;10.00;99.90;;;;;;5031074;28;20285;-77
2022/12/22 10:17:25;;;;;;;49.33;28.35;;;10.20;99.90;;;;;;5037658;28;20301;-74
2022/12/22 10:19:54;;;;;;;54.03;26.83;;;10.10;99.90;;;;;;5032958;28;20266;-78
2022/12/22 10:22:29;;;;;;;47.63;27.35;;;10.30;99.90;;;;;;5027212;28;20341;-76
2022/12/22 10:24:56;;;;;;;48.55;27.88;;;10.30;99.90;;;;;;5024578;28;20291;-75
2022/12/22 10:27:29;;;;;;;51.88;27.15;;;10.40;99.90;;;;;;5022636;28;20621;-75
2022/12/22 10:30:17;;;;;;;43.78;25.98;;;10.30;99.90;;;;;;5031111;28;20267;-75
2022/12/22 10:33:00;;;;;;;51.78;27.65;;;10.30;99.90;;;;;;5030225;28;20197;-75
2022/12/22 10:35:35;;;;;;;42.22;25.55;;;10.40;99.90;;;;;;5031553;28;20307;-77
2022/12/22 10:38:14;;;;;;;36.80;22.23;;;10.40;99.90;;;;;;5028902;28;20225;-76
2022/12/22 10:40:43;;;;;;;41.58;24.38;;;10.40;99.90;;;;;;5015820;28;20237;-75
2022/12/22 10:43:19;;;;;;;37.13;22.40;;;10.40;99.90;;;;;;5040708;28;20196;-77
2022/12/22 10:45:50;;;;;;;36.35;23.63;;;10.40;99.90;;;;;;5042353;28;20628;-76
2022/12/22 10:48:25;;;;;;;36.05;22.77;;;10.50;99.90;;;;;;5036769;28;20634;-75
2022/12/22 10:50:52;;;;;;;36.05;22.48;;;10.50;99.90;;;;;;5036219;28;20233;-77
2022/12/22 10:53:20;;;;;;;36.50;22.23;;;10.50;99.90;;;;;;5036597;28;20212;-76
2022/12/22 10:55:47;;;;;;;32.13;20.15;;;10.70;99.90;;;;;;5034864;28;20399;-76
2022/12/22 10:58:18;;;;;;;33.05;20.55;;;10.70;99.90;;;;;;5036467;28;20197;-75
2022/12/22 11:00:59;;;;;;;31.52;19.48;;;10.60;99.90;;;;;;5035624;28;20206;-76
2022/12/22 11:03:31;;;;;;;32.22;21.80;;;10.60;99.90;;;;;;5036762;28;20216;-78
2022/12/22 11:05:59;;;;;;;29.05;18.88;;;10.90;99.90;;;;;;5030090;28;20268;-74
2022/12/22 11:08:26;;;;;;;31.35;19.83;;;11.00;99.90;;;;;;5034903;28;20210;-78
2022/12/22 11:10:57;;;;;;;39.42;20.77;;;11.00;99.90;;;;;;5039868;28;20287;-76
2022/12/22 11:13:39;;;;;;;30.77;20.25;;;10.80;99.90;;;;;;5040699;28;20332;-75
2022/12/22 11:16:29;;;;;;;33.50;20.50;;;10.80;99.90;;;;;;5039516;28;20710;-77
2022/12/22 11:19:32;;;;;;;32.42;20.45;;;10.70;99.90;;;;;;5023485;28;20260;-77
2022/12/22 11:22:06;;;;;;;33.30;18.60;;;10.60;99.90;;;;;;5035931;28;20667;-75
2022/12/22 11:24:40;;;;;;;31.02;19.55;;;10.60;99.90;;;;;;5047420;28;20204;-77
2022/12/22 11:27:23;;;;;;;32.20;19.13;;;10.30;99.90;;;;;;5047392;28;20312;-75
2022/12/22 11:30:03;;;;;;;33.10;19.00;;;10.30;99.90;;;;;;5039898;28;20252;-75
2022/12/22 11:33:00;;;;;;;32.70;19.27;;;10.20;99.90;;;;;;5036327;28;20242;-77
2022/12/22 11:35:41;;;;;;;32.42;20.13;;;10.10;99.90;;;;;;5023046;28;20204;-80
2022/12/22 11:38:18;;;;;;;31.48;18.48;;;10.00;99.90;;;;;;5035735;28;20201;-79
2022/12/22 11:40:50;;;;;;;34.85;20.58;;;9.90;99.90;;;;;;5034607;28;20212;-78
2022/12/22 11:43:26;;;;;;;34.15;20.08;;;9.90;99.90;;;;;;5029280;28;20305;-74
2022/12/22 11:46:04;;;;;;;33.00;19.45;;;9.90;99.90;;;;;;5036762;28;20308;-77
2022/12/22 11:49:09;;;;;;;32.35;19.13;;;9.80;99.90;;;;;;5043479;28;20254;-77
2022/12/22 11:52:05;;;;;;;29.02;18.60;;;9.70;99.90;;;;;;5035226;28;20236;-77
2022/12/22 11:55:07;;;;;;;35.08;17.50;;;9.70;99.90;;;;;;5019441;28;20200;-78
2022/12/22 11:57:39;;;;;;;38.10;20.95;;;9.60;99.90;;;;;;5031577;28;20315;-76
2022/12/22 12:00:12;;;;;;;29.73;17.50;;;9.60;99.90;;;;;;5029132;28;20231;-78
2022/12/22 12:03:23;;;;;;;32.85;16.02;;;9.60;99.90;;;;;;5031211;28;20214;-74
2022/12/22 12:06:27;;;;;;;25.85;15.48;;;9.70;99.90;;;;;;5031044;28;20312;-74
2022/12/22 12:09:10;;;;;;;29.55;18.08;;;9.60;99.90;;;;;;5033510;28;20224;-76
2022/12/22 12:11:43;;;;;;;37.78;18.98;;;9.60;99.90;;;;;;5037425;28;20302;-77
2022/12/22 12:14:19;;;;;;;28.70;17.10;;;9.70;99.90;;;;;;5033006;28;20746;-79
2022/12/22 12:16:53;;;;;;;27.45;17.23;;;9.70;99.90;;;;;;5019421;28;20223;-82
2022/12/22 12:19:50;;;;;;;24.90;18.35;;;9.60;99.90;;;;;;5034517;28;20267;-79
2022/12/22 12:22:30;;;;;;;30.52;16.50;;;9.50;99.90;;;;;;5033272;28;20232;-79
2022/12/22 12:25:02;;;;;;;26.05;16.75;;;9.60;99.90;;;;;;5043679;28;20259;-80
2022/12/22 12:27:52;;;;;;;26.95;14.20;;;9.50;99.90;;;;;;5035763;28;20256;-77
2022/12/22 12:30:21;;;;;;;24.05;12.93;;;9.60;99.90;;;;;;5040877;28;20210;-78
2022/12/22 12:32:53;;;;;;;25.52;14.10;;;9.60;99.90;;;;;;5053555;28;20243;-77
2022/12/22 12:35:38;;;;;;;20.05;13.15;;;9.60;99.90;;;;;;5025243;28;20297;-80
2022/12/22 12:38:11;;;;;;;23.17;12.50;;;9.60;99.90;;;;;;5032939;28;20237;-78
2022/12/22 12:40:48;;;;;;;16.95;11.02;;;9.70;99.90;;;;;;5032475;28;20303;-80
2022/12/22 12:43:15;;;;;;;17.70;10.68;;;9.70;99.90;;;;;;5021229;28;20201;-79
2022/12/22 12:45:48;;;;;;;18.38;11.65;;;9.60;99.90;;;;;;5035946;28;20229;-80
2022/12/22 12:48:37;;;;;;;15.13;9.73;;;9.70;99.90;;;;;;5036231;28;20231;-80
2022/12/22 12:51:42;;;;;;;17.60;10.73;;;9.50;99.90;;;;;;5036483;28;20581;-80
2022/12/22 12:54:43;;;;;;;20.50;10.88;;;9.70;99.90;;;;;;5035701;28;20627;-79
2022/12/22 12:57:24;;;;;;;17.92;10.43;;;9.60;99.90;;;;;;5028662;28;20237;-81
2022/12/22 12:59:52;;;;;;;15.38;9.07;;;9.60;99.90;;;;;;5030452;28;20228;-81
2022/12/22 13:02:37;;;;;;;22.88;10.77;;;9.60;99.90;;;;;;5036143;28;20558;-80
2022/12/22 13:05:32;;;;;;;22.48;9.68;;;9.70;99.90;;;;;;5035986;28;20327;-80
2022/12/22 13:08:20;;;;;;;16.52;8.70;;;9.70;99.90;;;;;;5034639;28;20252;-78
2022/12/22 13:11:21;;;;;;;15.65;9.65;;;9.60;99.90;;;;;;5029060;28;20269;-80
2022/12/22 13:13:52;;;;;;;15.05;8.35;;;9.60;99.90;;;;;;5032850;28;20204;-79
2022/12/22 13:16:31;;;;;;;14.52;9.25;;;9.50;99.90;;;;;;5043015;28;20564;-80
2022/12/22 13:19:02;;;;;;;13.77;8.23;;;9.60;99.90;;;;;;5032025;28;20279;-81
2022/12/22 13:21:37;;;;;;;17.20;7.70;;;9.60;99.90;;;;;;5035512;28;20267;-78
2022/12/22 13:24:11;;;;;;;14.50;8.55;;;9.50;99.90;;;;;;5036493;28;20196;-79
2022/12/22 13:26:40;;;;;;;14.35;7.45;;;9.40;99.90;;;;;;5035162;28;20224;-79
2022/12/22 13:29:18;;;;;;;10.95;7.20;;;9.40;99.90;;;;;;5036129;28;20266;-80
2022/12/22 13:31:50;;;;;;;15.32;8.13;;;9.40;99.90;;;;;;5034417;28;20410;-80
2022/12/22 13:34:35;;;;;;;15.82;7.30;;;9.50;99.90;;;;;;5031435;28;20201;-78
2022/12/22 13:37:12;;;;;;;14.25;7.90;;;9.50;99.90;;;;;;5028075;28;20228;-78
2022/12/22 13:40:01;;;;;;;18.20;7.38;;;9.50;99.90;;;;;;5015066;28;20236;-79
2022/12/22 13:42:28;;;;;;;17.25;8.25;;;9.50;99.90;;;;;;5027384;28;20211;-76
2022/12/22 13:44:57;;;;;;;13.77;8.07;;;9.50;99.90;;;;;;5026078;28;20200;-76
2022/12/22 13:47:25;;;;;;;19.65;8.27;;;9.50;99.90;;;;;;5022061;28;20996;-77
2022/12/22 13:49:52;;;;;;;16.38;8.05;;;9.40;99.90;;;;;;5035062;28;20223;-78
2022/12/22 13:52:23;;;;;;;19.55;8.98;;;9.50;99.90;;;;;;5025800;28;20310;-77
2022/12/22 13:54:50;;;;;;;13.57;8.30;;;9.40;99.90;;;;;;5031866;28;20201;-81
2022/12/22 13:57:20;;;;;;;14.20;7.30;;;9.50;99.90;;;;;;5029949;28;20299;-77
2022/12/22 13:59:50;;;;;;;16.15;7.47;;;9.40;99.90;;;;;;5027783;28;20308;-79
2022/12/22 14:02:20;;;;;;;14.32;9.57;;;9.40;99.90;;;;;;5028359;28;20237;-78
2022/12/22 14:05:04;;;;;;;14.15;7.68;;;9.30;99.90;;;;;;5033648;28;20240;-80
2022/12/22 14:07:32;;;;;;;17.50;6.75;;;9.20;99.90;;;;;;5027721;28;20251;-83
2022/12/22 14:09:59;;;;;;;14.27;8.60;;;9.20;99.90;;;;;;5029781;28;20727;-81
2022/12/22 14:12:28;;;;;;;20.25;8.13;;;9.20;99.90;;;;;;5028093;28;20264;-82
2022/12/22 14:14:58;;;;;;;14.73;8.57;;;9.20;99.90;;;;;;5031894;28;20208;-76
2022/12/22 14:17:28;;;;;;;17.60;7.15;;;9.20;99.90;;;;;;5019985;28;20643;-78
2022/12/22 14:19:57;;;;;;;17.85;8.05;;;9.10;99.90;;;;;;5020382;28;20375;-78
2022/12/22 14:22:27;;;;;;;16.35;8.80;;;9.10;99.90;;;;;;5027060;28;20204;-76
2022/12/22 14:24:58;;;;;;;12.93;8.57;;;9.00;99.90;;;;;;5032761;28;20232;-78
2022/12/22 14:27:33;;;;;;;12.60;8.95;;;9.00;99.90;;;;;;5029547;28;20259;-76
2022/12/22 14:30:03;;;;;;;15.18;8.02;;;8.90;99.90;;;;;;5032155;28;20218;-78
2022/12/22 14:32:40;;;;;;;20.50;8.45;;;8.90;99.90;;;;;;5039011;28;20204;-74
2022/12/22 14:35:26;;;;;;;16.15;8.80;;;8.70;99.90;;;;;;5035430;28;20199;-80
2022/12/22 14:37:55;;;;;;;12.80;7.40;;;8.70;99.90;;;;;;5027605;28;20200;-75
2022/12/22 14:40:32;;;;;;;16.23;6.40;;;8.60;99.90;;;;;;5027277;28;20259;-77
2022/12/22 14:43:01;;;;;;;11.80;7.43;;;8.60;99.90;;;;;;5029692;28;20284;-79
2022/12/22 14:45:28;;;;;;;20.98;8.65;;;8.50;99.90;;;;;;5026688;28;20239;-76
2022/12/22 14:47:58;;;;;;;20.02;7.03;;;8.50;99.90;;;;;;5029228;28;20645;-74
2022/12/22 14:50:27;;;;;;;13.80;6.88;;;8.50;99.90;;;;;;5031866;28;20274;-75
2022/12/22 14:52:56;;;;;;;11.30;6.97;;;8.40;99.90;;;;;;5031599;28;20259;-75
2022/12/22 14:55:27;;;;;;;18.05;8.38;;;8.40;99.90;;;;;;5049262;28;20206;-77
2022/12/22 14:58:11;;;;;;;15.43;6.57;;;8.40;99.90;;;;;;5033565;28;20283;-78
2022/12/22 15:00:40;;;;;;;14.77;6.60;;;8.30;99.90;;;;;;5021374;28;20220;-77
2022/12/22 15:03:32;;;;;;;20.80;7.90;;;8.30;99.90;;;;;;5031954;28;20624;-76
2022/12/22 15:06:23;;;;;;;11.13;7.75;;;8.20;99.90;;;;;;5038771;28;20316;-77
2022/12/22 15:08:51;;;;;;;15.70;5.90;;;8.20;99.90;;;;;;5031575;28;20235;-78
2022/12/22 15:11:19;;;;;;;19.77;7.45;;;8.20;99.90;;;;;;5026901;28;20207;-78
2022/12/22 15:13:49;;;;;;;13.27;7.40;;;8.20;99.90;;;;;;5033150;28;20631;-77
2022/12/22 15:16:20;;;;;;;15.32;7.60;;;8.20;99.90;;;;;;5033661;28;20537;-77
2022/12/22 15:18:50;;;;;;;11.82;6.40;;;8.10;99.90;;;;;;5038805;28;20223;-78
2022/12/22 15:21:18;;;;;;;16.42;7.20;;;8.10;99.90;;;;;;5032366;28;20196;-78
2022/12/22 15:23:45;;;;;;;22.23;8.80;;;8.10;99.90;;;;;;5036012;28;20220;-76
2022/12/22 15:26:13;;;;;;;10.98;6.57;;;8.10;99.90;;;;;;5036595;28;20203;-78
2022/12/22 15:28:40;;;;;;;23.02;9.27;;;8.20;99.90;;;;;;5032778;28;20251;-77
2022/12/22 15:31:13;;;;;;;17.17;8.75;;;8.10;99.90;;;;;;5032743;28;20301;-76
2022/12/22 15:33:42;;;;;;;18.85;8.27;;;8.20;99.90;;;;;;5036887;28;20582;-78
2022/12/22 15:36:12;;;;;;;20.90;10.93;;;8.20;99.90;;;;;;5031847;28;20203;-77
2022/12/22 15:38:40;;;;;;;19.10;9.15;;;8.20;99.90;;;;;;5036631;28;20254;-75
2022/12/22 15:41:07;;;;;;;22.75;9.10;;;8.30;99.90;;;;;;5034067;28;20200;-77
2022/12/22 15:43:35;;;;;;;25.92;9.93;;;8.30;99.90;;;;;;5037184;28;20208;-77
2022/12/22 15:46:03;;;;;;;21.15;9.95;;;8.30;99.90;;;;;;5031251;28;20211;-77
2022/12/22 15:48:34;;;;;;;20.48;9.52;;;8.30;99.90;;;;;;5030534;28;20228;-76
2022/12/22 15:51:03;;;;;;;19.08;9.57;;;8.30;99.90;;;;;;5029496;28;20236;-78
2022/12/22 15:53:33;;;;;;;23.85;9.20;;;8.30;99.90;;;;;;5029878;28;20661;-76
2022/12/22 15:56:01;;;;;;;15.55;10.50;;;8.30;99.90;;;;;;5032150;28;20205;-80
2022/12/22 15:58:32;;;;;;;16.80;9.48;;;8.30;99.90;;;;;;5030576;28;20235;-76
2022/12/22 16:00:59;;;;;;;22.63;9.35;;;8.40;99.90;;;;;;5029895;28;20197;-77
2022/12/22 16:03:26;;;;;;;23.15;9.35;;;8.40;99.90;;;;;;5036468;28;20327;-76
2022/12/22 16:05:54;;;;;;;19.85;10.10;;;8.40;99.90;;;;;;5030519;28;20448;-81
2022/12/22 16:08:27;;;;;;;18.00;9.02;;;8.40;99.90;;;;;;5038830;28;20215;-83
2022/12/22 16:10:55;;;;;;;20.52;8.88;;;8.40;99.90;;;;;;5035333;28;20283;-77
2022/12/22 16:13:26;;;;;;;20.08;8.52;;;8.50;99.90;;;;;;5029658;28;20198;-76
2022/12/22 16:15:54;;;;;;;18.13;10.25;;;8.50;99.90;;;;;;5034887;28;20204;-77
2022/12/22 16:18:21;;;;;;;14.40;8.30;;;8.20;99.90;;;;;;5041378;28;20196;-77
2022/12/22 16:20:51;;;;;;;19.85;9.18;;;8.40;99.90;;;;;;5024167;28;20295;-76
2022/12/22 16:23:20;;;;;;;21.77;10.23;;;8.50;99.90;;;;;;5038591;28;20282;-76
2022/12/22 16:25:47;;;;;;;22.50;8.93;;;8.60;99.90;;;;;;5027086;28;20213;-78
2022/12/22 16:28:19;;;;;;;20.48;9.00;;;8.60;99.90;;;;;;5034727;28;20248;-75
2022/12/22 16:30:47;;;;;;;20.48;10.63;;;8.60;99.90;;;;;;5033646;28;20235;-75
2022/12/22 16:33:14;;;;;;;17.23;9.38;;;8.60;99.90;;;;;;5035657;28;20204;-75
2022/12/22 16:35:42;;;;;;;19.88;9.63;;;8.50;99.90;;;;;;5036562;28;20254;-76